createdAt,value
2023-04-11T00:02:25.015Z,100.00
2023-04-11T00:04:55.106Z,100.00
2023-04-11T00:07:22.940Z,100.00
2023-04-11T00:09:50.629Z,100.00
2023-04-11T00:12:18.306Z,100.00
2023-04-11T00:14:49.093Z,100.00
2023-04-11T00:17:17.701Z,100.00
2023-04-11T00:19:47.215Z,100.00
2023-04-11T00:22:16.144Z,100.00
2023-04-11T00:24:43.960Z,100.00
2023-04-11T00:27:11.675Z,100.00
2023-04-11T00:29:39.375Z,100.00
2023-04-11T00:32:07.870Z,100.00
2023-04-11T00:34:35.857Z,100.00
2023-04-11T00:37:05.003Z,100.00
2023-04-11T00:39:35.067Z,100.00
2023-04-11T00:42:07.795Z,100.00
2023-04-11T00:44:36.186Z,100.00
2023-04-11T00:47:06.296Z,100.00
2023-04-11T00:49:34.243Z,100.00
2023-04-11T00:52:02.630Z,100.00
2023-04-11T00:54:32.085Z,100.00
2023-04-11T00:57:01.029Z,100.00
2023-04-11T00:59:28.853Z,100.00
2023-04-11T01:01:57.162Z,100.00
2023-04-11T01:04:26.144Z,100.00
2023-04-11T01:06:57.147Z,100.00
2023-04-11T01:09:27.219Z,100.00
2023-04-11T01:11:57.804Z,100.00
2023-04-11T01:14:27.074Z,100.00
2023-04-11T01:16:56.517Z,100.00
2023-04-11T01:19:26.875Z,100.00
2023-04-11T01:21:56.728Z,98.83
2023-04-11T01:24:25.938Z,100.00
2023-04-11T01:26:53.847Z,100.00
2023-04-11T01:29:21.618Z,98.98
2023-04-11T01:31:50.356Z,100.00
2023-04-11T01:34:18.673Z,100.00
2023-04-11T01:36:46.811Z,100.00
2023-04-11T01:39:15.377Z,98.68
2023-04-11T01:41:45.420Z,97.34
2023-04-11T01:44:14.184Z,99.49
2023-04-11T01:46:43.256Z,99.24
2023-04-11T01:49:11.079Z,97.11
2023-04-11T01:51:38.875Z,99.26
2023-04-11T01:54:06.920Z,99.33
2023-04-11T01:56:34.682Z,100.00
2023-04-11T01:59:04.436Z,100.00
2023-04-11T02:01:32.314Z,100.00
2023-04-11T02:04:00.259Z,100.00
2023-04-11T02:06:28.530Z,100.00
2023-04-11T02:08:56.428Z,99.64
2023-04-11T02:11:24.291Z,99.54
2023-04-11T02:13:52.839Z,99.96
2023-04-11T02:16:25.848Z,100.00
2023-04-11T02:18:54.342Z,100.00
2023-04-11T02:21:22.498Z,100.00
2023-04-11T02:23:50.330Z,100.00
2023-04-11T02:26:18.113Z,100.00
2023-04-11T02:28:45.837Z,100.00
2023-04-11T02:31:13.624Z,100.00
2023-04-11T02:33:42.993Z,100.00
2023-04-11T02:36:12.494Z,100.00
2023-04-11T02:38:40.332Z,100.00
2023-04-11T02:41:08.753Z,100.00
2023-04-11T02:43:36.557Z,100.00
2023-04-11T02:46:12.577Z,100.00
2023-04-11T02:48:42.931Z,100.00
2023-04-11T02:51:10.680Z,100.00
2023-04-11T02:53:38.388Z,100.00
2023-04-11T02:56:07.781Z,100.00
2023-04-11T02:58:39.008Z,100.00
2023-04-11T03:01:07.978Z,100.00
2023-04-11T03:03:35.823Z,100.00
2023-04-11T03:06:06.821Z,100.00
2023-04-11T03:08:35.880Z,100.00
2023-04-11T03:11:03.808Z,100.00
2023-04-11T03:13:32.092Z,100.00
2023-04-11T03:15:59.979Z,100.00
2023-04-11T03:18:27.732Z,100.00
2023-04-11T03:20:56.053Z,100.00
2023-04-11T03:23:25.390Z,100.00
2023-04-11T03:25:53.725Z,100.00
2023-04-11T03:28:21.478Z,100.00
2023-04-11T03:30:50.566Z,100.00
2023-04-11T03:33:18.317Z,100.00
2023-04-11T03:35:46.100Z,100.00
2023-04-11T03:38:13.908Z,100.00
2023-04-11T03:40:43.076Z,100.00
2023-04-11T03:43:10.817Z,100.00
2023-04-11T03:45:38.557Z,100.00
2023-04-11T03:48:07.062Z,100.00
2023-04-11T03:50:34.918Z,100.00
2023-04-11T03:53:02.676Z,100.00
2023-04-11T03:55:30.409Z,100.00
2023-04-11T03:57:59.542Z,100.00
2023-04-11T04:00:28.297Z,100.00
2023-04-11T04:02:56.176Z,100.00
2023-04-11T04:05:24.130Z,100.00
2023-04-11T04:07:53.493Z,100.00
2023-04-11T04:10:22.269Z,100.00
2023-04-11T04:12:50.059Z,100.00
2023-04-11T04:15:19.412Z,100.00
2023-04-11T04:17:47.165Z,100.00
2023-04-11T04:20:14.972Z,100.00
2023-04-11T04:22:42.748Z,100.00
2023-04-11T04:25:12.668Z,100.00
2023-04-11T04:27:44.438Z,100.00
2023-04-11T04:30:15.727Z,100.00
2023-04-11T04:32:45.292Z,100.00
2023-04-11T04:35:14.185Z,100.00
2023-04-11T04:37:45.692Z,100.00
2023-04-11T04:40:15.948Z,100.00
2023-04-11T04:42:43.787Z,100.00
2023-04-11T04:45:11.883Z,100.00
2023-04-11T04:47:39.671Z,100.00
2023-04-11T04:50:09.961Z,100.00
2023-04-11T04:52:37.726Z,100.00
2023-04-11T04:55:06.330Z,100.00
2023-04-11T04:57:34.038Z,100.00
2023-04-11T05:00:01.811Z,100.00
2023-04-11T05:02:30.848Z,100.00
2023-04-11T05:05:04.131Z,100.00
2023-04-11T05:07:33.227Z,100.00
2023-04-11T05:10:00.868Z,100.00
2023-04-11T05:12:28.784Z,100.00
2023-04-11T05:14:57.611Z,100.00
2023-04-11T05:17:28.833Z,100.00
2023-04-11T05:19:56.580Z,100.00
2023-04-11T05:22:24.319Z,100.00
2023-04-11T05:24:53.453Z,100.00
2023-04-11T05:27:21.290Z,100.00
2023-04-11T05:29:49.019Z,100.00
2023-04-11T05:32:16.726Z,100.00
2023-04-11T05:34:58.833Z,100.00
2023-04-11T05:37:27.257Z,100.00
2023-04-11T05:39:56.384Z,100.00
2023-04-11T05:42:24.232Z,100.00
2023-04-11T05:44:51.930Z,100.00
2023-04-11T05:47:19.725Z,100.00
2023-04-11T05:49:48.665Z,100.00
2023-04-11T05:52:16.545Z,100.00
2023-04-11T05:54:44.267Z,100.00
2023-04-11T05:57:13.340Z,100.00
2023-04-11T05:59:41.115Z,100.00
2023-04-11T06:02:09.096Z,100.00
2023-04-11T06:04:37.114Z,100.00
2023-04-11T06:07:04.933Z,100.00
2023-04-11T06:09:34.081Z,100.00
2023-04-11T06:12:02.052Z,100.00
2023-04-11T06:14:31.133Z,100.00
2023-04-11T06:16:58.871Z,100.00
2023-04-11T06:19:26.626Z,100.00
2023-04-11T06:21:54.389Z,100.00
2023-04-11T06:24:36.005Z,100.00
2023-04-11T06:27:04.482Z,100.00
2023-04-11T06:29:33.698Z,100.00
2023-04-11T06:32:01.438Z,100.00
2023-04-11T06:34:29.241Z,100.00
2023-04-11T06:36:57.693Z,100.00
2023-04-11T06:39:25.741Z,100.00
2023-04-11T06:41:53.505Z,100.00
2023-04-11T06:44:21.277Z,100.00
2023-04-11T06:46:50.413Z,100.00
2023-04-11T06:49:18.927Z,100.00
2023-04-11T06:51:49.981Z,100.00
2023-04-11T06:54:18.185Z,100.00
2023-04-11T06:56:45.957Z,100.00
2023-04-11T06:59:13.750Z,100.00
2023-04-11T07:01:41.556Z,100.00
2023-04-11T07:04:10.862Z,100.00
2023-04-11T07:06:39.040Z,100.00
2023-04-11T07:09:07.428Z,100.00
2023-04-11T07:11:35.164Z,100.00
2023-04-11T07:14:03.555Z,100.00
2023-04-11T07:16:31.320Z,100.00
2023-04-11T07:19:00.062Z,100.00
2023-04-11T07:21:30.201Z,100.00
2023-04-11T07:23:58.035Z,100.00
2023-04-11T07:26:31.926Z,100.00
2023-04-11T07:28:59.841Z,100.00
2023-04-11T07:31:27.907Z,100.00
2023-04-11T07:33:55.941Z,100.00
2023-04-11T07:36:25.044Z,100.00
2023-04-11T07:38:54.185Z,100.00
2023-04-11T07:41:21.909Z,100.00
2023-04-11T07:43:49.641Z,100.00
2023-04-11T07:46:17.413Z,100.00
2023-04-11T07:48:45.154Z,100.00
2023-04-11T07:51:13.416Z,100.00
2023-04-11T07:53:41.176Z,100.00
2023-04-11T07:56:11.365Z,100.00
2023-04-11T07:58:39.114Z,100.00
2023-04-11T08:01:09.106Z,100.00
2023-04-11T08:03:37.095Z,100.00
2023-04-11T08:06:05.804Z,100.00
2023-04-11T08:08:33.561Z,100.00
2023-04-11T08:11:01.256Z,100.00
2023-04-11T08:13:30.354Z,100.00
2023-04-11T08:15:58.094Z,100.00
2023-04-11T08:18:26.021Z,100.00
2023-04-11T08:20:53.739Z,100.00
2023-04-11T08:23:22.742Z,100.00
2023-04-11T08:25:50.412Z,100.00
2023-04-11T08:28:18.221Z,100.00
2023-04-11T08:30:47.347Z,100.00
2023-04-11T08:33:15.762Z,100.00
2023-04-11T08:35:43.551Z,100.00
2023-04-11T08:38:11.414Z,100.00
2023-04-11T08:40:39.143Z,100.00
2023-04-11T08:43:11.965Z,100.00
2023-04-11T08:45:39.871Z,100.00
2023-04-11T08:48:09.518Z,100.00
2023-04-11T08:50:37.634Z,100.00
2023-04-11T08:53:05.702Z,100.00
2023-04-11T08:55:33.419Z,100.00
2023-04-11T08:58:02.941Z,100.00
2023-04-11T09:00:32.565Z,100.00
2023-04-11T09:03:02.140Z,100.00
2023-04-11T09:05:32.897Z,100.00
2023-04-11T09:08:02.228Z,100.00
2023-04-11T09:10:30.356Z,100.00
2023-04-11T09:12:58.912Z,100.00
2023-04-11T09:15:28.061Z,100.00
2023-04-11T09:18:00.366Z,100.00
2023-04-11T09:20:30.328Z,100.00
2023-04-11T09:23:00.242Z,100.00
2023-04-11T09:25:28.804Z,100.00
2023-04-11T09:28:08.810Z,100.00
2023-04-11T09:30:37.021Z,100.00
2023-04-11T09:33:21.424Z,100.00
2023-04-11T09:35:50.418Z,100.00
2023-04-11T09:38:30.831Z,100.00
2023-04-11T09:40:59.193Z,100.00
2023-04-11T09:43:27.668Z,100.00
2023-04-11T09:46:11.937Z,100.00
2023-04-11T09:51:12.677Z,100.00
2023-04-11T09:53:44.265Z,100.00
2023-04-11T09:56:12.313Z,100.00
2023-04-11T09:58:41.897Z,100.00
2023-04-11T10:01:11.493Z,100.00
2023-04-11T10:03:40.007Z,100.00
2023-04-11T10:06:11.090Z,100.00
2023-04-11T10:08:41.751Z,100.00
2023-04-11T10:11:14.603Z,100.00
2023-04-11T10:13:43.937Z,100.00
2023-04-11T10:16:13.478Z,100.00
2023-04-11T10:19:22.801Z,100.00
2023-04-11T10:21:50.625Z,100.00
2023-04-11T10:24:20.201Z,100.00
2023-04-11T10:26:52.096Z,100.00
2023-04-11T10:29:50.002Z,100.00
2023-04-11T10:32:24.467Z,100.00
2023-04-11T10:35:32.056Z,100.00
2023-04-11T10:37:59.840Z,100.00
2023-04-11T10:40:27.663Z,100.00
2023-04-11T10:42:57.454Z,100.00
2023-04-11T10:45:27.161Z,100.00
2023-04-11T10:48:07.780Z,100.00
2023-04-11T10:50:38.083Z,100.00
2023-04-11T10:53:07.443Z,100.00
2023-04-11T10:55:46.056Z,100.00
2023-04-11T10:58:16.739Z,100.00
2023-04-11T11:01:31.198Z,100.00
2023-04-11T11:04:05.769Z,100.00
2023-04-11T11:06:46.020Z,100.00
2023-04-11T11:09:24.363Z,100.00
2023-04-11T11:12:13.984Z,100.00
2023-04-11T11:14:44.990Z,100.00
2023-04-11T11:17:14.052Z,100.00
2023-04-11T11:19:45.247Z,100.00
2023-04-11T11:22:16.148Z,100.00
2023-04-11T11:24:43.920Z,100.00
2023-04-11T11:27:19.804Z,100.00
2023-04-11T11:29:49.012Z,100.00
2023-04-11T11:32:22.724Z,100.00
2023-04-11T11:34:52.690Z,95.80
2023-04-11T11:37:21.418Z,84.83
2023-04-11T11:39:50.026Z,81.95
2023-04-11T11:42:17.946Z,85.29
2023-04-11T11:44:45.842Z,99.57
2023-04-11T11:47:16.097Z,94.06
2023-04-11T11:49:45.689Z,80.48
2023-04-11T11:52:14.105Z,75.49
2023-04-11T11:54:45.508Z,71.17
2023-04-11T11:57:13.322Z,88.62
2023-04-11T11:59:41.393Z,99.11
2023-04-11T12:02:09.902Z,89.90
2023-04-11T12:04:39.246Z,90.96
2023-04-11T12:07:10.513Z,91.03
2023-04-11T12:09:38.239Z,100.00
2023-04-11T12:12:09.865Z,100.00
2023-04-11T12:14:37.630Z,100.00
2023-04-11T12:17:05.344Z,100.00
2023-04-11T12:19:33.044Z,100.00
2023-04-11T12:22:02.749Z,100.00
2023-04-11T12:24:30.541Z,100.00
2023-04-11T12:27:07.028Z,100.00
2023-04-11T12:29:35.741Z,100.00
2023-04-11T12:32:03.996Z,100.00
2023-04-11T12:34:31.706Z,100.00
2023-04-11T12:36:59.422Z,100.00
2023-04-11T12:39:28.491Z,100.00
2023-04-11T12:41:56.232Z,100.00
2023-04-11T12:44:24.005Z,100.00
2023-04-11T12:46:51.906Z,100.00
2023-04-11T12:49:19.667Z,100.00
2023-04-11T12:51:47.374Z,100.00
2023-04-11T12:54:15.173Z,100.00
2023-04-11T12:56:44.233Z,96.08
2023-04-11T12:59:11.973Z,83.52
2023-04-11T13:01:39.747Z,82.42
2023-04-11T13:04:07.727Z,74.88
2023-04-11T13:06:35.557Z,87.35
2023-04-11T13:09:05.931Z,98.33
2023-04-11T13:11:34.800Z,100.00
2023-04-11T13:14:04.046Z,100.00
2023-04-11T13:16:32.876Z,100.00
2023-04-11T13:19:01.294Z,100.00
2023-04-11T13:21:29.032Z,100.00
2023-04-11T13:23:56.997Z,100.00
2023-04-11T13:26:24.950Z,100.00
2023-04-11T13:28:52.697Z,100.00
2023-04-11T13:31:26.383Z,100.00
2023-04-11T13:33:54.247Z,100.00
2023-04-11T13:36:22.045Z,100.00
2023-04-11T13:38:51.384Z,100.00
2023-04-11T13:41:19.078Z,100.00
2023-04-11T13:43:46.797Z,100.00
2023-04-11T13:46:16.160Z,100.00
2023-04-11T13:48:45.293Z,100.00
2023-04-11T13:51:13.234Z,100.00
2023-04-11T13:53:41.194Z,100.00
2023-04-11T13:56:10.632Z,100.00
2023-04-11T13:58:39.112Z,100.00
2023-04-11T14:01:08.184Z,100.00
2023-04-11T14:03:36.130Z,100.00
2023-04-11T14:06:05.920Z,100.00
2023-04-11T14:08:33.635Z,100.00
2023-04-11T14:11:01.447Z,100.00
2023-04-11T14:13:29.140Z,100.00
2023-04-11T14:16:07.915Z,100.00
2023-04-11T14:18:37.017Z,100.00
2023-04-11T14:21:07.315Z,100.00
2023-04-11T14:23:35.838Z,100.00
2023-04-11T14:26:03.621Z,100.00
2023-04-11T14:28:31.371Z,100.00
2023-04-11T14:30:59.205Z,100.00
2023-04-11T14:33:27.377Z,100.00
2023-04-11T14:35:55.097Z,100.00
2023-04-11T14:38:24.184Z,100.00
2023-04-11T14:40:51.899Z,100.00
2023-04-11T14:43:19.653Z,100.00
2023-04-11T14:45:47.882Z,100.00
2023-04-11T14:48:16.078Z,100.00
2023-04-11T14:50:43.826Z,100.00
2023-04-11T14:53:11.597Z,100.00
2023-04-11T14:55:42.764Z,100.00
2023-04-11T14:58:11.161Z,100.00
2023-04-11T15:00:38.951Z,100.00
2023-04-11T15:03:06.805Z,100.00
2023-04-11T15:05:34.698Z,100.00
2023-04-11T15:08:02.426Z,100.00
2023-04-11T15:10:31.917Z,100.00
2023-04-11T15:13:00.987Z,100.00
2023-04-11T15:15:28.731Z,100.00
2023-04-11T15:18:21.537Z,100.00
2023-04-11T15:20:49.574Z,100.00
2023-04-11T15:23:17.950Z,100.00
2023-04-11T15:25:46.156Z,100.00
2023-04-11T15:28:15.274Z,100.00
2023-04-11T15:30:48.337Z,100.00
2023-04-11T15:33:17.015Z,100.00
2023-04-11T15:35:45.794Z,100.00
2023-04-11T15:38:15.269Z,100.00
2023-04-11T15:40:43.163Z,100.00
2023-04-11T15:43:11.053Z,100.00
2023-04-11T15:45:40.507Z,100.00
2023-04-11T15:48:08.260Z,100.00
2023-04-11T15:50:35.980Z,100.00
2023-04-11T15:53:03.711Z,100.00
2023-04-11T15:55:32.866Z,100.00
2023-04-11T15:58:00.775Z,100.00
2023-04-11T16:00:28.674Z,100.00
2023-04-11T16:03:02.867Z,100.00
2023-04-11T16:05:32.027Z,100.00
2023-04-11T16:08:00.586Z,100.00
2023-04-11T16:10:30.027Z,100.00
2023-04-11T16:12:57.906Z,100.00
2023-04-11T16:15:25.632Z,100.00
2023-04-11T16:17:53.375Z,100.00
2023-04-11T16:20:22.754Z,100.00
2023-04-11T16:22:50.545Z,100.00
2023-04-11T16:25:21.023Z,100.00
2023-04-11T16:27:49.537Z,100.00
2023-04-11T16:30:17.451Z,100.00
2023-04-11T16:32:45.556Z,100.00
2023-04-11T16:35:13.325Z,100.00
2023-04-11T16:37:42.459Z,100.00
2023-04-11T16:40:11.487Z,100.00
2023-04-11T16:42:39.814Z,100.00
2023-04-11T16:45:09.122Z,100.00
2023-04-11T16:47:37.075Z,100.00
2023-04-11T16:50:05.732Z,100.00
2023-04-11T16:52:33.949Z,100.00
2023-04-11T16:55:03.503Z,100.00
2023-04-11T16:57:33.169Z,100.00
2023-04-11T17:00:06.248Z,100.00
2023-04-11T17:02:34.137Z,100.00
2023-04-11T17:05:01.968Z,100.00
2023-04-11T17:07:29.766Z,100.00
2023-04-11T17:09:57.493Z,100.00
2023-04-11T17:12:27.103Z,100.00
2023-04-11T17:14:55.978Z,100.00
2023-04-11T17:17:23.755Z,100.00
2023-04-11T17:19:51.516Z,100.00
2023-04-11T17:22:19.300Z,100.00
2023-04-11T17:24:47.025Z,100.00
2023-04-11T17:27:14.797Z,100.00
2023-04-11T17:29:43.925Z,100.00
2023-04-11T17:32:11.996Z,100.00
2023-04-11T17:34:39.703Z,100.00
2023-04-11T17:37:07.450Z,100.00
2023-04-11T17:39:36.655Z,100.00
2023-04-11T17:42:04.812Z,100.00
2023-04-11T17:44:32.602Z,100.00
2023-04-11T17:47:01.694Z,100.00
2023-04-11T17:49:29.516Z,100.00
2023-04-11T17:51:59.635Z,100.00
2023-04-11T17:54:27.757Z,100.00
2023-04-11T17:56:56.267Z,100.00
2023-04-11T17:59:25.505Z,100.00
2023-04-11T18:01:55.932Z,100.00
2023-04-11T18:04:25.388Z,100.00
2023-04-11T18:06:53.140Z,100.00
2023-04-11T18:09:20.879Z,100.00
2023-04-11T18:11:48.579Z,100.00
2023-04-11T18:14:16.250Z,100.00
2023-04-11T18:16:47.092Z,100.00
2023-04-11T18:19:14.819Z,100.00
2023-04-11T18:21:43.956Z,100.00
2023-04-11T18:24:11.656Z,100.00
2023-04-11T18:26:39.368Z,100.00
2023-04-11T18:29:07.071Z,100.00
2023-04-11T18:31:35.309Z,100.00
2023-04-11T18:34:03.814Z,100.00
2023-04-11T18:36:32.861Z,100.00
2023-04-11T18:39:02.016Z,100.00
2023-04-11T18:41:29.742Z,100.00
2023-04-11T18:43:57.747Z,100.00
2023-04-11T18:46:25.852Z,100.00
2023-04-11T18:48:54.010Z,100.00
2023-04-11T18:51:21.749Z,100.00
2023-04-11T18:53:49.491Z,100.00
2023-04-11T18:56:18.572Z,100.00
2023-04-11T18:58:48.688Z,100.00
2023-04-11T19:01:19.045Z,100.00
2023-04-11T19:03:47.018Z,100.00
2023-04-11T19:06:15.087Z,100.00
2023-04-11T19:08:42.824Z,100.00
2023-04-11T19:11:10.671Z,100.00
2023-04-11T19:13:39.883Z,100.00
2023-04-11T19:16:08.028Z,100.00
2023-04-11T19:18:35.814Z,100.00
2023-04-11T19:21:03.685Z,100.00
2023-04-11T19:23:31.415Z,100.00
2023-04-11T19:26:00.633Z,100.00
2023-04-11T19:28:28.399Z,100.00
2023-04-11T19:30:57.510Z,100.00
2023-04-11T19:33:26.128Z,100.00
2023-04-11T19:35:54.235Z,100.00
2023-04-11T19:38:22.347Z,100.00
2023-04-11T19:40:50.144Z,100.00
2023-04-11T19:43:17.864Z,100.00
2023-04-11T19:45:47.108Z,100.00
2023-04-11T19:48:16.958Z,100.00
2023-04-11T19:50:44.843Z,100.00
2023-04-11T19:53:12.573Z,100.00
2023-04-11T19:55:41.118Z,100.00
2023-04-11T19:58:08.909Z,100.00
2023-04-11T20:00:38.496Z,100.00
2023-04-11T20:03:07.973Z,100.00
2023-04-11T20:05:37.305Z,100.00
2023-04-11T20:08:05.054Z,100.00
2023-04-11T20:10:34.126Z,100.00
2023-04-11T20:13:01.909Z,100.00
2023-04-11T20:15:29.920Z,100.00
2023-04-11T20:17:57.907Z,100.00
2023-04-11T20:20:27.923Z,100.00
2023-04-11T20:22:57.223Z,100.00
2023-04-11T20:25:25.060Z,100.00
2023-04-11T20:27:53.422Z,100.00
2023-04-11T20:30:21.830Z,100.00
2023-04-11T20:32:49.639Z,100.00
2023-04-11T20:35:19.246Z,100.00
2023-04-11T20:37:47.840Z,100.00
2023-04-11T20:40:17.594Z,100.00
2023-04-11T20:42:47.387Z,100.00
2023-04-11T20:45:17.258Z,100.00
2023-04-11T20:47:46.308Z,100.00
2023-04-11T20:50:15.792Z,100.00
2023-04-11T20:52:45.666Z,100.00
2023-04-11T20:55:15.614Z,100.00
2023-04-11T20:57:45.062Z,100.00
2023-04-11T21:00:14.546Z,100.00
2023-04-11T21:02:44.575Z,100.00
2023-04-11T21:05:12.982Z,100.00
2023-04-11T21:07:41.414Z,100.00
2023-04-11T21:10:10.520Z,100.00
2023-04-11T21:12:38.551Z,100.00
2023-04-11T21:15:09.054Z,100.00
2023-04-11T21:17:39.438Z,100.00
2023-04-11T21:20:11.082Z,100.00
2023-04-11T21:22:40.732Z,100.00
2023-04-11T21:25:09.525Z,100.00
2023-04-11T21:27:37.254Z,100.00
2023-04-11T21:30:06.422Z,100.00
2023-04-11T21:32:35.662Z,100.00
2023-04-11T21:35:04.107Z,100.00
2023-04-11T21:37:31.859Z,100.00
2023-04-11T21:39:59.568Z,100.00
2023-04-11T21:42:27.343Z,100.00
2023-04-11T21:44:55.077Z,100.00
2023-04-11T21:47:22.812Z,100.00
2023-04-11T21:49:51.941Z,100.00
2023-04-11T21:52:19.656Z,100.00
2023-04-11T21:54:47.484Z,100.00
2023-04-11T21:57:15.219Z,100.00
2023-04-11T21:59:43.016Z,100.00
2023-04-11T22:02:10.919Z,100.00
2023-04-11T22:04:51.176Z,100.00
2023-04-11T22:07:25.375Z,100.00
2023-04-11T22:09:58.242Z,100.00
2023-04-11T22:12:27.337Z,100.00
2023-04-11T22:14:56.640Z,100.00
2023-04-11T22:17:24.741Z,100.00
2023-04-11T22:19:52.490Z,100.00
2023-04-11T22:22:20.321Z,100.00
2023-04-11T22:24:50.229Z,100.00
2023-04-11T22:27:18.766Z,100.00
2023-04-11T22:29:47.032Z,100.00
2023-04-11T22:32:14.770Z,100.00
2023-04-11T22:34:42.465Z,100.00
2023-04-11T22:37:10.182Z,100.00
2023-04-11T22:39:37.928Z,100.00
2023-04-11T22:42:07.790Z,100.00
2023-04-11T22:44:35.504Z,100.00
2023-04-11T22:47:06.723Z,100.00
2023-04-11T22:49:40.179Z,100.00
2023-04-11T22:52:08.282Z,100.00
2023-04-11T22:54:36.177Z,100.00
2023-04-11T22:57:03.938Z,100.00
2023-04-11T22:59:33.380Z,100.00
2023-04-11T23:02:01.129Z,100.00
2023-04-11T23:04:28.968Z,100.00
2023-04-11T23:06:58.143Z,100.00
2023-04-11T23:09:26.368Z,100.00
2023-04-11T23:11:54.242Z,100.00
2023-04-11T23:14:22.281Z,100.00
2023-04-11T23:16:51.482Z,100.00
2023-04-11T23:19:19.877Z,100.00
2023-04-11T23:21:47.658Z,100.00
2023-04-11T23:24:15.870Z,100.00
2023-04-11T23:26:43.585Z,100.00
2023-04-11T23:29:12.148Z,100.00
2023-04-11T23:31:39.862Z,100.00
2023-04-11T23:34:08.990Z,100.00
2023-04-11T23:36:37.643Z,100.00
2023-04-11T23:39:05.720Z,100.00
2023-04-11T23:41:33.490Z,100.00
2023-04-11T23:44:01.193Z,100.00
2023-04-11T23:46:28.998Z,100.00
2023-04-11T23:48:56.958Z,100.00
2023-04-11T23:51:27.026Z,100.00
2023-04-11T23:53:54.752Z,100.00
2023-04-11T23:56:23.040Z,100.00
2023-04-11T23:58:50.782Z,100.00
